Time;durP1;ratioP1;P1;durP2;ratioP2;P2;SDS_P1;SDS_P2;PMS_P1;PMS_P2;Temp;Humidity;BMP_temperature;BMP_pressure;BME280_temperature;BME280_humidity;BME280_pressure;Samples;Min_cycle;Max_cycle;Signal;HPM_P1;HPM_P2
2023/09/01 00:00:46;;;;;;;5.20;3.40;;;;;;;24.10;53.02;101226.22;6060735;23;20057;-79
2023/09/01 00:03:18;;;;;;;12.35;3.47;;;;;;;24.10;51.53;101227.09;6080609;23;20501;-78
2023/09/01 00:05:49;;;;;;;9.20;3.03;;;;;;;24.03;54.33;101220.84;6083270;23;20097;-78
2023/09/01 00:08:17;;;;;;;5.28;3.47;;;;;;;23.97;54.02;101205.41;6090407;23;20117;-77
2023/09/01 00:10:47;;;;;;;9.35;3.80;;;;;;;23.84;53.61;101184.56;6075235;23;20029;-78
2023/09/01 00:13:18;;;;;;;6.65;3.53;;;;;;;24.14;51.89;101260.03;6072361;23;20389;-79
2023/09/01 00:15:48;;;;;;;7.78;3.30;;;;;;;23.19;51.90;101099.50;6099814;23;20028;-78
2023/09/01 00:18:18;;;;;;;7.63;3.25;;;;;;;24.09;54.02;101251.69;6097443;23;20029;-78
2023/09/01 00:20:50;;;;;;;;;;;;;;;23.78;54.95;101211.66;6055461;23;20049;-78
2023/09/01 00:23:24;;;;;;;11.65;3.38;;;;;;;24.10;53.05;101259.63;6061149;23;19971;-79
2023/09/01 00:25:56;;;;;;;7.57;3.00;;;;;;;24.04;53.96;101271.31;6024964;23;20174;-80
2023/09/01 00:28:24;;;;;;;10.50;3.78;;;;;;;24.10;51.75;101270.50;6101823;23;20310;-80
2023/09/01 00:30:51;;;;;;;4.97;3.30;;;;;;;23.87;53.34;101254.63;6073403;23;20757;-78
2023/09/01 00:33:20;;;;;;;7.82;3.67;;;;;;;23.99;51.90;101273.00;6087303;23;20029;-80
2023/09/01 00:35:49;;;;;;;9.52;3.90;;;;;;;23.55;51.90;101206.63;6097454;23;20080;-78
2023/09/01 00:38:16;;;;;;;8.48;3.38;;;;;;;23.85;52.00;101261.31;6075306;23;20026;-77
2023/09/01 00:40:50;;;;;;;8.30;3.72;;;;;;;23.82;51.32;101257.13;6055847;23;20210;-80
2023/09/01 00:43:29;;;;;;;7.25;2.90;;;;;;;23.64;52.54;101244.16;6049204;23;20132;-80
2023/09/01 00:46:03;;;;;;;6.97;3.28;;;;;;;23.75;51.96;101277.16;6059699;23;20208;-79
2023/09/01 00:48:30;;;;;;;5.80;2.70;;;;;;;23.49;53.52;101223.72;6078838;23;20053;-78
2023/09/01 00:51:01;;;;;;;7.20;3.67;;;;;;;23.87;52.57;101278.19;6110112;23;20354;-78
2023/09/01 00:53:30;;;;;;;7.93;4.00;;;;;;;23.83;52.64;101274.22;6120731;23;20033;-77
2023/09/01 00:55:59;;;;;;;11.93;4.03;;;;;;;23.66;51.66;101239.34;6079490;23;20041;-79
2023/09/01 00:58:26;;;;;;;13.18;4.25;;;;;;;23.72;51.68;101239.59;6078551;23;20886;-77
2023/09/01 01:00:57;;;;;;;11.77;3.80;;;;;;;23.63;52.25;101233.53;6076986;23;20095;-79
2023/09/01 01:03:27;;;;;;;6.18;3.50;;;;;;;23.54;53.82;101219.31;6070909;23;20480;-78
2023/09/01 01:06:30;;;;;;;5.97;3.92;;;;;;;23.85;52.42;101277.56;6022637;23;20036;-80
2023/09/01 01:09:08;;;;;;;6.28;3.03;;;;;;;23.78;52.01;101280.25;6073702;23;20088;-77
2023/09/01 01:12:05;;;;;;;8.17;4.03;;;;;;;23.71;51.61;101286.69;6083806;23;20108;-78
2023/09/01 01:14:41;;;;;;;7.22;3.83;;;;;;;23.71;52.01;101289.41;6080836;23;20029;-79
2023/09/01 01:17:09;;;;;;;6.60;3.63;;;;;;;23.66;51.71;101274.59;6067992;23;20022;-78
2023/09/01 01:19:48;;;;;;;9.70;4.60;;;;;;;23.55;52.50;101267.09;6079425;23;20635;-79
2023/09/01 01:22:19;;;;;;;8.85;3.95;;;;;;;23.82;53.61;101284.25;6088411;23;20026;-79
2023/09/01 01:24:46;;;;;;;;;;;;;;;23.80;53.47;101291.75;6085600;23;20410;-78
2023/09/01 01:27:18;;;;;;;6.05;3.40;;;;;;;23.67;52.96;101276.28;6091850;23;20146;-78
2023/09/01 01:29:49;;;;;;;9.32;4.05;;;;;;;23.47;52.50;101240.16;6097431;23;20366;-79
2023/09/01 01:32:21;;;;;;;12.10;3.70;;;;;;;23.68;53.30;101280.63;6098657;23;20721;-79
2023/09/01 01:35:04;;;;;;;6.72;3.50;;;;;;;23.68;52.58;101294.19;6052500;23;20030;-77
2023/09/01 01:38:00;;;;;;;10.50;4.05;;;;;;;23.61;54.46;101277.09;6041436;23;20619;-79
2023/09/01 01:40:32;;;;;;;8.68;4.63;;;;;;;23.31;52.52;101225.16;6085257;23;20033;-79
2023/09/01 01:43:03;;;;;;;8.05;4.20;;;;;;;23.46;52.48;101252.06;6076119;23;20530;-78
2023/09/01 01:45:31;;;;;;;7.03;3.45;;;;;;;23.64;53.24;101282.13;6069710;23;20028;-78
2023/09/01 01:47:58;;;;;;;6.70;4.05;;;;;;;23.73;54.67;101288.19;6059502;23;20028;-78
2023/09/01 01:50:27;;;;;;;10.25;4.40;;;;;;;23.38;53.16;101227.88;6069124;23;20021;-79
2023/09/01 01:52:57;;;;;;;12.73;4.40;;;;;;;23.70;53.00;101274.19;6082224;23;20048;-78
2023/09/01 01:55:25;;;;;;;8.43;3.83;;;;;;;23.85;54.98;101299.25;6101818;23;20017;-78
2023/09/01 01:57:52;;;;;;;9.27;4.20;;;;;;;23.76;53.37;101284.22;6070455;23;20408;-79
2023/09/01 02:00:21;;;;;;;9.43;4.40;;;;;;;23.76;52.65;101278.81;6057778;23;20021;-78
2023/09/01 02:02:47;;;;;;;7.38;3.97;;;;;;;23.67;52.77;101270.84;6084677;23;20102;-77
2023/09/01 02:05:14;;;;;;;12.18;3.83;;;;;;;23.52;53.38;101267.50;6099041;23;20346;-77
2023/09/01 02:07:41;;;;;;;6.25;3.78;;;;;;;23.63;54.93;101280.44;6092357;23;20385;-77
2023/09/01 02:10:08;;;;;;;9.18;4.13;;;;;;;23.67;53.48;101292.53;6086472;23;20105;-78
2023/09/01 02:12:35;;;;;;;9.25;4.55;;;;;;;23.13;53.81;101204.06;6071649;23;20041;-76
2023/09/01 02:15:12;;;;;;;10.73;4.18;;;;;;;23.60;53.63;101275.44;6042519;23;20226;-80
2023/09/01 02:17:43;;;;;;;11.52;4.75;;;;;;;23.65;52.24;101281.06;6064332;23;20778;-79
2023/09/01 02:20:16;;;;;;;8.82;4.30;;;;;;;23.13;54.47;101204.06;6090386;23;20104;-81
2023/09/01 02:22:45;;;;;;;7.25;4.07;;;;;;;23.62;54.26;101281.47;6062542;23;20021;-79
2023/09/01 02:25:14;;;;;;;12.77;4.50;;;;;;;22.99;52.45;101186.13;6090704;23;20029;-77
2023/09/01 02:27:46;;;;;;;11.80;4.55;;;;;;;23.35;52.55;101264.34;6099170;23;20457;-80
2023/09/01 02:30:16;;;;;;;11.27;4.32;;;;;;;23.45;53.25;101277.50;6085597;23;20093;-79
2023/09/01 02:32:49;;;;;;;15.35;4.93;;;;;;;23.31;52.30;101275.78;6052619;23;20025;-78
2023/09/01 02:35:16;;;;;;;6.93;4.47;;;;;;;23.30;53.77;101290.34;6076983;23;20072;-78
2023/09/01 02:37:43;;;;;;;9.07;4.75;;;;;;;23.35;53.05;101304.97;6061008;23;20414;-78
2023/09/01 02:40:13;;;;;;;11.27;4.80;;;;;;;23.27;53.78;101279.94;6066278;23;20277;-76
2023/09/01 02:42:40;;;;;;;10.20;4.20;;;;;;;23.28;53.86;101282.44;6081817;23;20088;-77
2023/09/01 02:45:11;;;;;;;6.78;4.60;;;;;;;23.45;55.07;101294.59;6085786;23;20386;-77
2023/09/01 02:47:38;;;;;;;10.60;4.55;;;;;;;23.17;53.38;101232.41;6090668;23;20437;-75
2023/09/01 02:50:05;;;;;;;5.85;3.75;;;;;;;23.09;53.84;101224.47;6082192;23;20027;-79
2023/09/01 02:52:34;;;;;;;12.25;4.28;;;;;;;23.45;55.01;101280.19;6049546;23;20029;-77
2023/09/01 02:55:00;;;;;;;11.20;4.25;;;;;;;23.00;52.45;101204.03;6068024;23;20798;-78
2023/09/01 02:57:31;;;;;;;7.22;3.63;;;;;;;23.55;54.55;101283.34;6081556;23;20088;-77
2023/09/01 03:00:14;;;;;;;9.00;3.90;;;;;;;23.36;53.10;101251.63;6102654;23;20021;-78
2023/09/01 03:02:45;;;;;;;7.95;4.22;;;;;;;23.45;53.87;101272.91;6083169;23;20323;-76
2023/09/01 03:05:12;;;;;;;6.35;4.07;;;;;;;23.45;54.17;101269.38;6063271;23;20548;-78
2023/09/01 03:07:43;;;;;;;7.63;4.40;;;;;;;23.30;52.53;101247.84;6076184;23;20028;-78
2023/09/01 03:10:13;;;;;;;10.50;4.40;;;;;;;23.14;54.52;101232.81;6083197;23;20335;-78
2023/09/01 03:12:43;;;;;;;11.43;4.93;;;;;;;23.50;54.04;101276.84;6081563;23;20025;-80
2023/09/01 03:15:12;;;;;;;8.52;4.72;;;;;;;23.30;52.76;101247.84;6095188;23;20323;-77
2023/09/01 03:17:40;;;;;;;9.27;4.95;;;;;;;23.21;53.12;101249.91;6071618;23;20083;-77
2023/09/01 03:20:10;;;;;;;10.27;5.03;;;;;;;23.39;53.58;101283.72;6122419;23;20036;-79
2023/09/01 03:22:37;;;;;;;6.57;3.92;;;;;;;23.31;54.73;101271.19;6093275;23;20093;-76
2023/09/01 03:25:09;;;;;;;7.85;4.70;;;;;;;23.36;54.26;101289.56;6100640;23;20018;-75
2023/09/01 03:27:40;;;;;;;10.35;4.85;;;;;;;23.27;53.38;101279.94;6107366;23;20029;-78
2023/09/01 03:30:11;;;;;;;;;;;;;;;23.01;52.63;101238.19;6081511;23;20018;-79
2023/09/01 03:32:39;;;;;;;7.18;4.85;;;;;;;23.05;54.03;101263.81;6097824;23;20285;-75
2023/09/01 03:35:06;;;;;;;6.90;4.78;;;;;;;22.62;53.46;101190.94;6098592;23;20342;-76
2023/09/01 03:37:33;;;;;;;10.13;4.90;;;;;;;23.19;54.20;101279.06;6087163;23;20504;-77
2023/09/01 03:40:00;;;;;;;8.95;4.55;;;;;;;23.17;53.86;101278.44;6109889;23;20128;-76
2023/09/01 03:42:31;;;;;;;11.05;4.78;;;;;;;23.30;55.98;101280.34;6074423;23;20027;-79
2023/09/01 03:44:59;;;;;;;8.18;4.60;;;;;;;22.99;54.08;101230.28;6088243;23;20508;-79
2023/09/01 03:47:26;;;;;;;10.63;4.60;;;;;;;23.34;53.05;101297.03;6077846;23;20393;-79
2023/09/01 03:49:53;;;;;;;8.18;4.30;;;;;;;23.33;55.10;101293.50;6088507;23;20143;-78
2023/09/01 03:52:21;;;;;;;8.25;4.78;;;;;;;23.32;54.20;101280.16;6083404;23;20540;-79
2023/09/01 03:54:52;;;;;;;10.65;4.65;;;;;;;23.28;53.10;101292.44;6083974;23;20025;-77
2023/09/01 03:57:18;;;;;;;6.40;4.00;;;;;;;23.10;54.61;101279.47;6110816;23;20028;-80
2023/09/01 03:59:47;;;;;;;7.82;4.90;;;;;;;23.03;53.66;101279.44;6081432;23;20018;-78
2023/09/01 04:02:17;;;;;;;14.05;4.45;;;;;;;22.94;52.52;101261.69;6090340;23;20032;-80
2023/09/01 04:04:44;;;;;;;18.67;5.30;;;;;;;23.13;52.42;101303.41;6101014;23;20049;-79
2023/09/01 04:07:11;;;;;;;7.70;4.13;;;;;;;23.03;54.40;101304.66;6085054;23;20028;-80
2023/09/01 04:09:37;;;;;;;10.70;4.53;;;;;;;23.04;54.47;101308.19;6098745;23;20038;-79
2023/09/01 04:12:05;;;;;;;8.18;4.35;;;;;;;22.77;54.69;101251.19;6095664;23;20049;-79
2023/09/01 04:14:32;;;;;;;12.05;5.30;;;;;;;23.11;53.29;101290.09;6081994;23;20022;-79
2023/09/01 04:17:01;;;;;;;10.45;5.07;;;;;;;23.25;53.12;101308.06;6080486;23;20021;-81
2023/09/01 04:19:30;;;;;;;9.55;4.57;;;;;;;23.21;53.04;101316.81;6084354;23;20025;-79
2023/09/01 04:21:57;;;;;;;10.43;4.93;;;;;;;22.94;53.23;101286.88;6087377;23;20021;-79
2023/09/01 04:24:23;;;;;;;9.95;4.80;;;;;;;22.93;52.35;101300.59;6088713;23;20087;-79
2023/09/01 04:26:50;;;;;;;10.35;4.78;;;;;;;22.87;53.21;101307.66;6078409;23;20145;-78
2023/09/01 04:29:18;;;;;;;10.80;5.28;;;;;;;22.95;52.79;101323.72;6099393;23;20029;-79
2023/09/01 04:31:47;;;;;;;8.65;4.90;;;;;;;22.87;53.14;101314.97;6113850;23;20029;-80
2023/09/01 04:34:14;;;;;;;11.75;4.35;;;;;;;22.89;53.14;101329.97;6093615;23;20529;-80
2023/09/01 04:36:41;;;;;;;8.68;4.40;;;;;;;23.03;55.99;101318.19;6091016;23;20025;-78
2023/09/01 04:39:15;;;;;;;11.68;5.13;;;;;;;23.09;55.29;101321.13;6103843;23;20088;-78
2023/09/01 04:41:45;;;;;;;11.30;4.22;;;;;;;23.11;54.95;101319.88;6087927;23;20025;-79
2023/09/01 04:44:13;;;;;;;9.32;4.57;;;;;;;22.99;54.96;101316.09;6084749;23;20221;-78
2023/09/01 04:46:40;;;;;;;6.80;4.32;;;;;;;23.03;54.81;101328.16;6115765;23;20347;-78
2023/09/01 04:49:10;;;;;;;8.85;5.05;;;;;;;23.12;54.55;101331.56;6101942;23;20080;-79
2023/09/01 04:51:40;;;;;;;9.60;5.20;;;;;;;23.09;52.80;101334.66;6131206;23;20476;-81
2023/09/01 04:54:07;;;;;;;6.88;4.88;;;;;;;22.85;53.20;101320.56;6094656;23;20029;-78
2023/09/01 04:56:33;;;;;;;11.98;5.63;;;;;;;22.72;53.44;101317.75;6102255;23;20033;-77
2023/09/01 04:59:04;;;;;;;11.98;5.35;;;;;;;22.89;53.85;101348.91;6105589;23;20021;-80
2023/09/01 05:01:31;;;;;;;8.40;4.18;;;;;;;22.45;53.48;101281.59;6095160;23;20024;-79
2023/09/01 05:04:01;;;;;;;10.25;5.22;;;;;;;22.71;54.66;101326.94;6108415;23;20043;-79
2023/09/01 05:06:30;;;;;;;10.68;5.30;;;;;;;22.89;52.72;101357.03;6081122;23;20026;-79
2023/09/01 05:08:57;;;;;;;9.68;5.15;;;;;;;22.74;52.71;101327.34;6107534;23;20394;-79
2023/09/01 05:11:23;;;;;;;6.38;5.05;;;;;;;22.77;54.76;101326.97;6098545;23;20274;-77
2023/09/01 05:13:50;;;;;;;9.10;4.82;;;;;;;23.11;54.48;101360.50;6099989;23;20023;-79
2023/09/01 05:16:17;;;;;;;7.85;4.53;;;;;;;23.16;54.63;101366.16;6098645;23;20026;-79
2023/09/01 05:18:44;;;;;;;8.23;4.97;;;;;;;23.09;52.96;101354.47;6097276;23;20025;-79
2023/09/01 05:21:10;;;;;;;12.55;5.60;;;;;;;23.02;53.57;101359.00;6097357;23;20385;-78
2023/09/01 05:23:39;;;;;;;11.15;5.30;;;;;;;23.14;55.00;101373.66;6128012;23;20080;-78
2023/09/01 05:26:06;;;;;;;17.33;5.30;;;;;;;23.13;55.24;101369.28;6097860;23;20018;-77
2023/09/01 05:28:32;;;;;;;10.85;5.20;;;;;;;23.06;52.26;101365.69;6091444;23;20245;-79
2023/09/01 05:31:02;;;;;;;11.63;4.68;;;;;;;23.06;53.45;101376.53;6075103;23;20021;-81
2023/09/01 05:33:32;;;;;;;7.65;4.70;;;;;;;23.12;52.22;101381.13;6089268;23;20018;-78
2023/09/01 05:35:59;;;;;;;11.70;5.45;;;;;;;23.13;53.05;101379.25;6075429;23;20461;-78
2023/09/01 05:38:26;;;;;;;8.25;4.72;;;;;;;22.88;54.24;101330.16;6089498;23;20057;-77
2023/09/01 05:41:00;;;;;;;7.68;4.80;;;;;;;23.11;53.97;101362.34;6098544;23;20313;-79
2023/09/01 05:43:27;;;;;;;9.80;4.88;;;;;;;23.16;53.31;101382.41;6075896;23;20303;-80
2023/09/01 05:45:54;;;;;;;8.38;4.68;;;;;;;23.41;55.86;101392.72;6073388;23;20025;-79
2023/09/01 05:48:30;;;;;;;9.57;4.70;;;;;;;23.18;52.75;101374.94;6078247;23;20322;-80
2023/09/01 05:50:57;;;;;;;8.52;4.80;;;;;;;23.39;53.71;101394.81;6049168;23;20323;-78
2023/09/01 05:53:25;;;;;;;9.10;4.78;;;;;;;23.46;54.30;101403.78;6107267;23;20028;-79
2023/09/01 05:55:58;;;;;;;9.95;5.07;;;;;;;23.19;52.90;101360.34;6072096;23;20425;-80
2023/09/01 05:58:29;;;;;;;14.38;5.70;;;;;;;23.42;52.04;101407.94;6082655;23;20088;-80
2023/09/01 06:00:56;;;;;;;9.70;5.20;;;;;;;23.32;52.79;101391.22;6065954;23;20418;-79
2023/09/01 06:06:26;;;;;;;9.98;4.88;;;;;;;23.42;51.82;101407.94;6121803;23;20022;-78
2023/09/01 06:08:56;;;;;;;14.05;5.18;;;;;;;23.41;52.92;101406.28;6125186;23;20029;-80
2023/09/01 06:11:25;;;;;;;9.88;5.22;;;;;;;23.24;52.48;101389.53;6087132;23;20022;-81
2023/09/01 06:13:52;;;;;;;9.43;5.25;;;;;;;23.15;53.04;101372.59;6083659;23;20037;-80
2023/09/01 06:16:19;;;;;;;9.15;5.25;;;;;;;23.33;51.77;101401.03;6066254;23;20516;-79
2023/09/01 06:18:46;;;;;;;8.48;4.90;;;;;;;23.50;52.76;101420.47;6104574;23;20031;-79
2023/09/01 06:21:17;;;;;;;13.95;5.32;;;;;;;23.34;51.52;101389.16;6060603;23;20092;-78
2023/09/01 06:23:47;;;;;;;11.32;5.03;;;;;;;23.32;52.71;101399.34;6062063;23;20461;-78
2023/09/01 06:26:17;;;;;;;12.88;4.80;;;;;;;23.23;53.12;101391.41;6073479;23;20084;-80
2023/09/01 06:28:49;;;;;;;13.25;5.72;;;;;;;23.48;52.19;101417.16;6109069;23;20025;-80
2023/09/01 06:31:23;;;;;;;15.57;5.40;;;;;;;23.51;52.60;101419.44;6067900;23;20139;-80
2023/09/01 06:33:50;;;;;;;9.05;5.25;;;;;;;23.60;51.44;101427.19;6079385;23;20018;-79
2023/09/01 06:36:19;;;;;;;9.73;5.22;;;;;;;23.47;51.55;101391.91;6102199;23;20357;-78
2023/09/01 06:38:47;;;;;;;10.23;5.28;;;;;;;23.55;51.78;101402.59;6122221;23;20295;-79
2023/09/01 06:41:14;;;;;;;7.00;4.82;;;;;;;23.72;52.70;101419.31;6109316;23;20025;-81
2023/09/01 06:43:41;;;;;;;11.25;4.90;;;;;;;23.79;50.94;101424.81;6067179;23;20024;-79
2023/09/01 06:46:14;;;;;;;7.70;4.50;;;;;;;23.61;52.30;101398.22;6068652;23;20028;-79
2023/09/01 06:48:43;;;;;;;9.30;4.25;;;;;;;23.83;52.11;101421.47;6093097;23;20605;-79
2023/09/01 06:51:16;;;;;;;8.90;4.60;;;;;;;24.04;50.74;101444.88;6079179;23;20068;-79
2023/09/01 06:53:43;;;;;;;11.35;5.32;;;;;;;24.05;50.65;101440.28;6093481;23;20112;-78
2023/09/01 06:56:14;;;;;;;10.80;4.47;;;;;;;24.05;51.74;101441.13;6112009;23;20473;-79
2023/09/01 06:58:41;;;;;;;13.05;5.30;;;;;;;23.86;49.85;101404.81;6077508;23;20100;-80
2023/09/01 07:01:10;;;;;;;8.13;4.50;;;;;;;23.99;49.50;101436.53;6078927;23;20735;-78
2023/09/01 07:03:38;;;;;;;15.20;5.00;;;;;;;24.00;50.69;101440.91;6118270;23;20099;-77
2023/09/01 07:06:06;;;;;;;10.55;5.05;;;;;;;23.99;49.18;101439.25;6116171;23;20130;-82
2023/09/01 07:08:32;;;;;;;8.35;4.22;;;;;;;23.89;49.83;101411.69;6107647;23;20020;-79
2023/09/01 07:11:03;;;;;;;9.30;4.70;;;;;;;24.13;49.34;101447.38;6105461;23;20503;-79
2023/09/01 07:13:31;;;;;;;8.73;4.70;;;;;;;23.75;48.95;101385.59;6104736;23;20377;-78
2023/09/01 07:15:58;;;;;;;11.63;4.75;;;;;;;23.87;49.29;101402.91;6133353;23;20024;-78
2023/09/01 07:18:30;;;;;;;8.02;4.53;;;;;;;24.19;48.55;101465.56;6114462;23;20048;-79
2023/09/01 07:20:58;;;;;;;8.48;4.22;;;;;;;24.18;49.64;101467.47;6129193;23;20390;-78
2023/09/01 07:23:26;;;;;;;8.93;4.40;;;;;;;24.24;50.53;101469.34;6141446;23;20024;-77
2023/09/01 07:25:57;;;;;;;9.93;4.20;;;;;;;24.34;47.34;101470.81;6106394;23;20293;-79
2023/09/01 07:28:24;;;;;;;13.40;5.00;;;;;;;24.25;48.02;101457.44;6118605;23;20049;-81
2023/09/01 07:30:53;;;;;;;8.52;4.18;;;;;;;24.10;48.82;101433.22;6105239;23;20455;-76
2023/09/01 07:33:24;;;;;;;14.90;4.72;;;;;;;24.37;49.40;101473.09;6116227;23;20047;-79
2023/09/01 07:35:53;;;;;;;8.07;4.85;;;;;;;24.34;49.28;101471.63;6162428;23;20024;-80
2023/09/01 07:38:23;;;;;;;10.35;3.55;;;;;;;24.16;49.49;101445.13;6104549;23;20024;-81
2023/09/01 07:40:57;;;;;;;10.00;4.60;;;;;;;24.45;47.27;101467.50;6128579;23;20025;-81
2023/09/01 07:43:25;;;;;;;12.85;4.15;;;;;;;24.39;47.79;101469.13;6130363;23;20461;-78
2023/09/01 07:45:51;;;;;;;10.30;4.63;;;;;;;24.48;48.21;101486.09;6156904;23;20343;-77
2023/09/01 07:48:20;;;;;;;8.27;3.97;;;;;;;24.41;48.26;101477.09;6115774;23;20021;-79
2023/09/01 07:50:50;;;;;;;9.65;4.10;;;;;;;24.52;48.45;101488.19;6123729;23;20133;-77
2023/09/01 07:53:17;;;;;;;14.18;4.93;;;;;;;24.51;48.86;101489.22;6109488;23;20104;-77
2023/09/01 07:55:43;;;;;;;6.72;4.47;;;;;;;24.36;49.50;101468.72;6112830;23;20021;-76
2023/09/01 07:58:10;;;;;;;19.77;4.75;;;;;;;24.42;48.41;101479.59;6150037;23;20390;-77
2023/09/01 08:00:43;;;;;;;10.10;4.88;;;;;;;24.37;49.25;101476.69;6122153;23;20527;-76
2023/09/01 08:03:10;;;;;;;10.07;4.50;;;;;;;24.35;49.37;101467.06;6115760;23;20028;-78
2023/09/01 08:05:39;;;;;;;10.40;4.82;;;;;;;24.41;48.50;101486.06;6106129;23;20033;-79
2023/09/01 08:08:06;;;;;;;8.65;5.00;;;;;;;23.94;49.56;101411.91;6076457;23;20017;-77
2023/09/01 08:10:34;;;;;;;12.55;5.10;;;;;;;24.37;50.10;101475.81;6094993;23;20029;-79
2023/09/01 08:13:05;;;;;;;12.15;5.40;;;;;;;24.48;50.13;101478.78;6067512;23;20077;-79
2023/09/01 08:15:32;;;;;;;20.25;4.78;;;;;;;24.51;49.09;101483.78;6094720;23;20505;-78
2023/09/01 08:17:59;;;;;;;9.50;4.90;;;;;;;24.52;49.52;101476.50;6112829;23;20017;-79
2023/09/01 08:20:26;;;;;;;11.18;5.32;;;;;;;24.41;49.54;101456.22;6098835;23;20584;-79
2023/09/01 08:22:53;;;;;;;12.38;5.07;;;;;;;24.59;49.62;101473.78;6088740;23;20454;-78
2023/09/01 08:25:20;;;;;;;9.88;4.57;;;;;;;24.47;50.57;101439.13;6103110;23;20489;-81
2023/09/01 08:27:51;;;;;;;7.93;4.13;;;;;;;24.79;51.15;101461.06;6091651;23;20037;-78
2023/09/01 08:30:23;;;;;;;10.73;4.85;;;;;;;24.90;50.64;101478.59;6089850;23;20226;-79
2023/09/01 08:32:50;;;;;;;11.48;5.63;;;;;;;24.97;49.50;101481.31;6092641;23;20048;-77
2023/09/01 08:35:18;;;;;;;5.40;4.25;;;;;;;24.97;50.86;101465.00;6082742;23;20017;-79
2023/09/01 08:37:47;;;;;;;13.65;5.00;;;;;;;25.02;49.15;101484.22;6079861;23;20025;-78
2023/09/01 08:40:14;;;;;;;18.85;6.15;;;;;;;25.14;48.06;101490.69;6120761;23;20100;-79
2023/09/01 08:42:46;;;;;;;10.68;5.15;;;;;;;25.08;48.73;101489.66;6083579;23;20022;-77
2023/09/01 08:45:19;;;;;;;11.52;4.68;;;;;;;24.95;48.77;101459.78;6082989;23;20365;-79
2023/09/01 08:47:48;;;;;;;14.40;5.05;;;;;;;24.94;48.20;101450.78;6089819;23;20250;-78
2023/09/01 08:50:21;;;;;;;10.80;5.70;;;;;;;25.04;47.88;101463.13;6102358;23;20014;-80
2023/09/01 08:52:50;;;;;;;10.73;5.75;;;;;;;25.07;49.08;101473.56;6093328;23;20142;-78
2023/09/01 08:55:18;;;;;;;12.20;5.60;;;;;;;25.00;49.02;101459.16;6102427;23;20387;-80
2023/09/01 08:57:47;;;;;;;8.57;4.40;;;;;;;25.21;48.19;101472.50;6096260;23;20201;-78
2023/09/01 09:00:15;;;;;;;8.73;5.40;;;;;;;25.36;48.04;101483.13;6104000;23;20022;-78
2023/09/01 09:02:44;;;;;;;12.85;4.88;;;;;;;24.93;48.18;101427.41;6119441;23;20021;-76
2023/09/01 09:05:35;;;;;;;10.77;5.63;;;;;;;25.14;48.41;101460.78;6112449;23;20017;-78
2023/09/01 09:08:08;;;;;;;13.23;6.28;;;;;;;25.16;47.55;101454.09;6068336;23;20500;-79
2023/09/01 09:10:40;;;;;;;13.55;5.97;;;;;;;25.24;48.79;101472.09;6086178;23;20021;-77
2023/09/01 09:13:24;;;;;;;11.80;5.55;;;;;;;25.10;51.62;101429.69;6106166;23;20021;-78
2023/09/01 09:16:10;;;;;;;18.63;6.60;;;;;;;25.30;48.71;101460.38;6084014;23;20056;-77
2023/09/01 09:18:40;;;;;;;12.93;6.15;;;;;;;25.27;48.13;101444.50;6118586;23;20057;-78
2023/09/01 09:21:30;;;;;;;11.07;5.80;;;;;;;25.57;46.95;101472.00;6123420;23;20017;-78
2023/09/01 09:24:07;;;;;;;14.77;5.97;;;;;;;25.52;47.88;101473.69;6107233;23;20017;-78
2023/09/01 09:26:59;;;;;;;17.85;6.10;;;;;;;25.63;47.73;101481.16;6091693;23;20022;-78
2023/09/01 09:29:39;;;;;;;11.23;6.07;;;;;;;25.56;47.20;101451.31;6071703;23;20042;-78
2023/09/01 09:32:20;;;;;;;12.45;5.90;;;;;;;25.73;47.01;101476.13;6093075;23;20239;-79
2023/09/01 09:35:06;;;;;;;14.55;5.45;;;;;;;25.68;49.84;101462.34;6119479;23;20025;-80
2023/09/01 09:37:34;;;;;;;13.00;5.95;;;;;;;25.71;47.01;101440.16;6098192;23;20021;-79
2023/09/01 09:40:16;;;;;;;10.82;6.75;;;;;;;26.20;46.91;101484.06;6091211;23;20389;-79
2023/09/01 09:42:47;;;;;;;11.60;5.53;;;;;;;25.89;47.10;101430.47;6091333;23;20021;-80
2023/09/01 09:45:21;;;;;;;13.60;5.32;;;;;;;26.28;47.68;101481.06;6077194;23;20053;-79
2023/09/01 09:47:49;;;;;;;10.55;5.82;;;;;;;26.44;46.70;101477.00;6120972;23;20021;-79
2023/09/01 09:50:21;;;;;;;16.30;6.03;;;;;;;26.43;46.25;101464.44;6092850;23;20025;-80
2023/09/01 09:52:49;;;;;;;16.80;6.53;;;;;;;26.64;45.09;101464.09;6094316;23;20798;-78
2023/09/01 09:55:26;;;;;;;10.32;4.88;;;;;;;26.50;46.92;101429.00;6073807;23;20017;-79
2023/09/01 09:58:07;;;;;;;12.60;5.10;;;;;;;26.92;45.53;101470.13;6084126;23;20089;-79
2023/09/01 10:00:47;;;;;;;12.32;5.30;;;;;;;26.43;45.78;101377.31;6088580;23;20345;-80
2023/09/01 10:03:15;;;;;;;7.70;5.30;;;;;;;27.03;45.58;101470.22;6118136;23;20558;-80
2023/09/01 10:05:44;;;;;;;12.00;5.30;;;;;;;27.20;44.00;101454.16;6129679;23;20337;-79
2023/09/01 10:08:16;;;;;;;7.78;5.25;;;;;;;27.02;43.90;101408.63;6129582;23;20090;-80
2023/09/01 10:10:51;;;;;;;8.07;5.60;;;;;;;27.34;44.29;101445.84;6111361;23;20021;-80
2023/09/01 10:13:19;;;;;;;10.27;5.20;;;;;;;27.60;44.68;101472.78;6101296;23;20028;-79
2023/09/01 10:15:48;;;;;;;11.35;5.68;;;;;;;27.77;42.90;101470.28;6097627;23;20091;-77
2023/09/01 10:18:16;;;;;;;10.70;5.43;;;;;;;27.66;44.80;101451.94;6126279;23;20028;-77
2023/09/01 10:20:46;;;;;;;9.10;5.70;;;;;;;27.75;44.04;101434.19;6111382;23;20057;-79
2023/09/01 10:23:13;;;;;;;16.80;6.82;;;;;;;27.96;43.35;101441.06;6117596;23;20416;-78
2023/09/01 10:25:40;;;;;;;15.73;5.47;;;;;;;28.10;43.63;101458.91;6142249;23;20017;-78
2023/09/01 10:28:12;;;;;;;9.98;5.05;;;;;;;28.09;44.41;101450.97;6114107;23;20025;-79
2023/09/01 10:30:44;;;;;;;15.00;4.93;;;;;;;27.48;45.11;101357.38;6120818;23;20341;-79
2023/09/01 10:33:14;;;;;;;7.85;4.18;;;;;;;28.16;45.05;101450.84;6137950;23;20323;-78
2023/09/01 10:35:46;;;;;;;13.73;6.38;;;;;;;28.31;42.27;101449.38;6114495;23;20079;-78
2023/09/01 10:38:18;;;;;;;11.27;5.05;;;;;;;28.44;43.51;101455.69;6122316;23;20027;-80
2023/09/01 10:40:51;;;;;;;8.35;5.05;;;;;;;28.12;44.61;101398.63;6106518;23;20052;-78
2023/09/01 10:43:37;;;;;;;10.25;5.53;;;;;;;28.40;41.86;101446.28;6153826;23;20021;-77
2023/09/01 10:46:15;;;;;;;9.63;5.03;;;;;;;28.53;43.87;101446.09;6145525;23;20255;-78
2023/09/01 10:48:57;;;;;;;9.07;5.45;;;;;;;28.78;41.52;101445.88;6123225;23;20017;-78
2023/09/01 10:51:31;;;;;;;14.77;6.25;;;;;;;28.97;41.14;101446.59;6159633;23;20028;-77
2023/09/01 10:54:02;;;;;;;14.90;5.88;;;;;;;28.06;41.77;101306.78;6155632;23;20067;-79
2023/09/01 10:56:31;;;;;;;13.95;5.25;;;;;;;28.89;41.65;101436.84;6153521;23;20060;-79
2023/09/01 10:58:58;;;;;;;9.80;4.72;;;;;;;29.01;42.43;101447.78;6110216;23;20052;-79
2023/09/01 11:01:33;;;;;;;9.55;4.88;;;;;;;28.76;42.46;101396.97;6126734;23;20388;-80
2023/09/01 11:04:16;;;;;;;12.07;5.45;;;;;;;28.79;40.80;101384.72;6096099;23;20112;-79
2023/09/01 11:07:08;;;;;;;9.35;4.93;;;;;;;28.72;42.17;101352.06;6105183;23;20647;-79
2023/09/01 11:09:37;;;;;;;8.50;5.38;;;;;;;29.21;42.11;101432.94;6100985;23;20109;-80
2023/09/01 11:12:08;;;;;;;11.85;5.22;;;;;;;29.23;42.53;101428.06;6094825;23;20570;-80
2023/09/01 11:14:56;;;;;;;9.88;5.03;;;;;;;29.27;40.79;101426.50;6133002;23;20018;-80
2023/09/01 11:17:38;;;;;;;17.63;5.18;;;;;;;29.23;42.30;101430.81;6096776;23;20021;-79
2023/09/01 11:20:10;;;;;;;11.05;5.82;;;;;;;29.18;41.48;101415.94;6097719;23;20080;-79
2023/09/01 11:22:42;;;;;;;11.18;5.88;;;;;;;29.42;39.74;101426.84;6114452;23;20461;-78
2023/09/01 11:25:12;;;;;;;16.70;6.90;;;;;;;29.69;39.80;101413.44;6089031;23;20021;-78
2023/09/01 11:27:46;;;;;;;15.73;5.93;;;;;;;28.62;39.51;101209.78;6109767;23;20481;-79
2023/09/01 11:30:16;;;;;;;5.90;4.63;;;;;;;30.00;40.25;101427.66;6091267;23;20293;-79
2023/09/01 11:32:43;;;;;;;14.40;5.63;;;;;;;30.01;39.29;101415.66;6075123;23;20462;-80
2023/09/01 11:35:28;;;;;;;11.95;5.70;;;;;;;29.97;38.26;101395.31;6084275;23;20077;-79
2023/09/01 11:37:57;;;;;;;7.78;4.88;;;;;;;30.21;39.06;101417.91;6075201;23;20057;-78
2023/09/01 11:40:26;;;;;;;7.30;4.22;;;;;;;30.10;40.43;101416.94;6080246;23;20022;-78